Time;durP1;ratioP1;P1;durP2;ratioP2;P2;SDS_P1;SDS_P2;PMS_P1;PMS_P2;Temp;Humidity;BMP_temperature;BMP_pressure;BME280_temperature;BME280_humidity;BME280_pressure;Samples;Min_cycle;Max_cycle;Signal;HPM_P1;HPM_P2
2022/04/08 04:22:33;;;;;;;7.10;1.58;;;;;;;8.10;66.14;99038.50;5129437;27;20116;-72
2022/04/08 04:24:59;;;;;;;6.68;1.95;;;;;;;8.14;65.95;99033.63;5111493;28;20088;-72
2022/04/08 04:27:24;;;;;;;8.13;2.33;;;;;;;8.16;66.17;99031.63;5129652;28;20050;-72
2022/04/08 04:29:50;;;;;;;8.60;2.50;;;;;;;8.17;66.74;99027.97;5129733;28;20040;-72
2022/04/08 04:32:18;;;;;;;8.48;1.90;;;;;;;8.22;65.38;99030.06;5129250;28;20027;-72
2022/04/08 04:34:44;;;;;;;9.45;1.40;;;;;;;8.22;65.56;99014.16;5139557;22;20054;-78
2022/04/08 04:37:09;;;;;;;7.53;2.38;;;;;;;8.25;65.50;99022.53;5093418;28;20031;-79
2022/04/08 04:39:35;;;;;;;7.65;1.85;;;;;;;8.26;65.15;99021.53;5109403;28;20101;-80
2022/04/08 04:42:01;;;;;;;6.15;1.63;;;;;;;8.26;66.10;99020.69;5108243;28;20477;-77
2022/04/08 04:44:28;;;;;;;6.22;1.80;;;;;;;8.27;65.06;99017.84;5126251;28;21736;-78
2022/04/08 04:46:57;;;;;;;7.20;3.42;;;;;;;8.22;65.33;99003.53;5110938;28;20040;-77
2022/04/08 04:49:23;;;;;;;5.05;2.13;;;;;;;8.24;65.60;99004.97;5108560;28;20031;-76
2022/04/08 04:51:50;;;;;;;8.65;2.50;;;;;;;8.27;66.71;98999.28;5091112;28;20035;-79
2022/04/08 04:54:16;;;;;;;8.13;1.98;;;;;;;8.32;65.96;99001.38;5109774;28;20038;-78
2022/04/08 04:56:42;;;;;;;9.35;2.13;;;;;;;8.36;65.67;99000.84;5109662;28;20032;-78
2022/04/08 04:59:08;;;;;;;8.90;2.00;;;;;;;8.35;65.71;99004.53;5109814;28;20377;-78
2022/04/08 05:01:34;;;;;;;5.60;2.40;;;;;;;8.35;66.20;98995.72;5109522;28;20047;-78
2022/04/08 05:03:59;;;;;;;4.82;1.77;;;;;;;8.32;66.45;98996.06;5110262;28;20040;-79
2022/04/08 05:06:25;;;;;;;19.55;4.25;;;;;;;8.34;67.16;99008.13;5093370;28;20054;-78
2022/04/08 05:08:51;;;;;;;11.50;3.75;;;;;;;8.37;67.71;99005.16;5110180;28;20032;-78
2022/04/08 05:11:17;;;;;;;5.75;1.80;;;;;;;8.37;67.05;98997.19;5125089;28;20039;-78
2022/04/08 05:13:43;;;;;;;4.95;1.73;;;;;;;8.36;66.97;99014.13;5109727;28;20031;-78
2022/04/08 05:16:08;;;;;;;8.25;2.00;;;;;;;8.35;67.60;99004.53;5108950;28;20085;-77
2022/04/08 05:18:34;;;;;;;7.60;2.40;;;;;;;8.31;67.73;99007.69;5112501;28;20069;-78
2022/04/08 05:21:00;;;;;;;6.38;2.33;;;;;;;8.37;67.44;99014.94;5114757;28;20469;-79
2022/04/08 05:23:29;;;;;;;12.90;2.63;;;;;;;8.36;67.61;99011.47;5113152;28;20032;-77
2022/04/08 05:25:56;;;;;;;8.27;2.00;;;;;;;8.37;67.53;99002.50;5111930;28;20100;-78
2022/04/08 05:28:22;;;;;;;8.65;2.67;;;;;;;8.37;67.74;99010.44;5114654;28;20039;-77
2022/04/08 05:30:47;;;;;;;12.10;2.53;;;;;;;8.38;67.53;99012.09;5112216;28;20398;-78
2022/04/08 05:33:13;;;;;;;12.20;2.58;;;;;;;8.33;68.35;99017.09;5099476;28;20185;-78
2022/04/08 05:35:39;;;;;;;11.85;2.08;;;;;;;8.41;68.25;99006.41;5077203;28;20097;-75
2022/04/08 05:38:04;;;;;;;9.30;1.90;;;;;;;8.47;68.88;99012.78;5094759;28;20101;-75
2022/04/08 05:40:30;;;;;;;7.95;2.65;;;;;;;8.45;68.61;99014.00;5093485;28;20040;-75
2022/04/08 05:42:56;;;;;;;6.38;1.90;;;;;;;8.50;67.71;99008.94;5093012;28;20040;-75
2022/04/08 05:45:21;;;;;;;10.40;2.20;;;;;;;8.52;67.67;99004.25;5094568;28;20111;-75
2022/04/08 05:47:52;;;;;;;7.82;2.17;;;;;;;8.54;67.01;99007.53;5059775;28;20032;-75
2022/04/08 05:50:19;;;;;;;10.77;2.53;;;;;;;8.56;67.05;99002.88;5094555;28;20085;-75
2022/04/08 05:52:45;;;;;;;9.73;1.85;;;;;;;8.53;67.23;99000.59;5094310;28;20036;-75
2022/04/08 05:55:11;;;;;;;14.93;3.15;;;;;;;8.59;67.63;98997.19;5094553;28;20062;-76
2022/04/08 05:57:40;;;;;;;6.93;1.85;;;;;;;8.63;66.38;98999.25;5094363;28;20036;-75
2022/04/08 06:00:10;;;;;;;6.22;1.58;;;;;;;8.63;66.30;98996.63;5093129;28;20055;-75
2022/04/08 06:02:38;;;;;;;5.68;2.03;;;;;;;8.68;66.10;98998.69;5094021;28;20067;-70
2022/04/08 06:05:05;;;;;;;6.15;1.60;;;;;;;8.71;65.41;99000.97;5093978;28;20036;-71
2022/04/08 06:07:30;;;;;;;7.30;2.03;;;;;;;8.73;67.32;99001.59;5093908;28;20421;-70
2022/04/08 06:10:00;;;;;;;6.85;2.03;;;;;;;8.65;65.22;98994.56;5094082;28;20423;-76
2022/04/08 06:12:26;;;;;;;6.22;2.03;;;;;;;8.70;63.62;98986.88;5093499;28;20511;-74
2022/04/08 06:14:52;;;;;;;8.45;1.88;;;;;;;8.74;63.87;98991.78;5090300;28;20149;-73
2022/04/08 06:17:17;;;;;;;6.10;1.80;;;;;;;8.69;64.45;98979.09;5092819;28;20096;-73
2022/04/08 06:19:49;;;;;;;5.47;1.80;;;;;;;8.65;64.67;98988.44;5093486;28;20516;-74
2022/04/08 06:22:14;;;;;;;7.55;1.95;;;;;;;8.75;64.20;98988.97;5092878;28;20048;-73
2022/04/08 06:24:40;;;;;;;9.52;1.88;;;;;;;8.72;63.97;98994.63;5093524;28;20555;-74
2022/04/08 06:27:06;;;;;;;8.32;1.60;;;;;;;8.67;63.43;98987.25;5093295;28;20717;-73
2022/04/08 06:29:32;;;;;;;9.57;1.90;;;;;;;8.70;63.15;98988.69;5092358;28;20039;-73
2022/04/08 06:31:57;;;;;;;4.65;1.48;;;;;;;8.68;62.65;98985.44;5092486;28;20035;-73
2022/04/08 06:34:23;;;;;;;7.43;1.92;;;;;;;8.69;63.10;98984.41;5093061;28;20445;-73
2022/04/08 06:36:48;;;;;;;4.47;1.83;;;;;;;8.58;63.95;98983.09;5093749;28;20044;-73
2022/04/08 06:39:14;;;;;;;5.75;1.77;;;;;;;8.55;63.72;98974.69;5094217;28;20047;-73
2022/04/08 06:41:40;;;;;;;7.03;2.47;;;;;;;8.53;64.60;98977.53;5091959;28;20486;-74
2022/04/08 06:44:06;;;;;;;6.68;1.70;;;;;;;8.46;64.87;98978.47;5091760;28;20114;-73
2022/04/08 06:46:31;;;;;;;7.38;2.50;;;;;;;8.36;65.66;98968.19;5091779;28;20111;-73
2022/04/08 06:49:02;;;;;;;4.78;1.73;;;;;;;8.27;65.94;98970.09;5093155;28;20473;-73
2022/04/08 06:51:31;;;;;;;5.75;1.35;;;;;;;8.05;69.05;98950.72;5092460;28;20484;-74
2022/04/08 06:53:57;;;;;;;4.82;1.50;;;;;;;8.11;69.67;98975.66;5092241;28;20051;-73
2022/04/08 06:56:23;;;;;;;4.47;1.63;;;;;;;7.95;70.41;98965.28;5092713;28;20327;-73
2022/04/08 06:58:50;;;;;;;8.13;1.48;;;;;;;7.88;71.40;98966.03;5074708;28;20449;-73
2022/04/08 07:01:16;;;;;;;3.03;1.47;;;;;;;7.78;73.09;98956.75;5092565;28;20554;-74
2022/04/08 07:03:41;;;;;;;13.02;1.77;;;;;;;7.66;73.85;98963.53;5092106;28;20085;-73
2022/04/08 07:06:07;;;;;;;5.85;1.73;;;;;;;7.59;75.61;98972.22;5091086;28;20040;-73
2022/04/08 07:08:33;;;;;;;2.58;1.15;;;;;;;7.57;76.41;98957.50;5092583;28;20043;-73
2022/04/08 07:11:00;;;;;;;4.10;1.60;;;;;;;7.52;77.32;98955.41;5091079;28;20040;-73
2022/04/08 07:13:25;;;;;;;3.33;1.58;;;;;;;7.42;79.21;98956.69;5090491;28;20047;-73
2022/04/08 07:15:51;;;;;;;3.70;1.70;;;;;;;7.42;81.01;98954.84;5092410;28;20073;-73
2022/04/08 07:18:17;;;;;;;10.52;1.77;;;;;;;7.39;79.65;98954.44;5090974;28;20036;-73
2022/04/08 07:20:42;;;;;;;5.85;1.50;;;;;;;7.28;80.62;98942.44;5092378;28;20032;-73
2022/04/08 07:23:08;;;;;;;5.25;1.67;;;;;;;7.22;82.68;98941.34;5091546;28;20147;-73
2022/04/08 07:25:34;;;;;;;3.75;1.15;;;;;;;7.21;83.23;98936.25;5092267;28;20035;-72
2022/04/08 07:27:59;;;;;;;3.88;1.30;;;;;;;7.11;85.12;98936.53;5092124;28;20063;-73
2022/04/08 07:30:25;;;;;;;3.80;1.25;;;;;;;7.09;85.21;98935.88;5091929;28;20028;-73
2022/04/08 07:32:54;;;;;;;4.13;1.40;;;;;;;7.11;85.24;98933.88;5091902;28;20028;-73
2022/04/08 07:35:23;;;;;;;7.32;1.75;;;;;;;7.01;86.58;98928.84;5090515;28;20032;-72
2022/04/08 07:37:49;;;;;;;5.25;1.40;;;;;;;6.95;87.63;98926.09;5092231;28;20067;-72
2022/04/08 07:40:15;;;;;;;8.07;1.80;;;;;;;7.00;88.63;98923.75;5092294;28;20032;-74
2022/04/08 07:42:41;;;;;;;5.30;1.70;;;;;;;6.94;88.89;98916.53;5091255;28;20101;-73
2022/04/08 07:45:08;;;;;;;4.10;1.73;;;;;;;6.93;90.35;98913.06;5091727;28;20032;-72
2022/04/08 07:47:34;;;;;;;4.60;1.63;;;;;;;6.89;91.49;98911.78;5090666;28;20485;-73
2022/04/08 07:50:02;;;;;;;5.93;2.33;;;;;;;6.88;93.04;98911.97;5090576;28;20050;-74
2022/04/08 07:52:28;;;;;;;4.38;1.85;;;;;;;6.83;94.98;98901.09;5089215;28;20115;-73
2022/04/08 07:54:55;;;;;;;5.43;2.00;;;;;;;6.85;95.97;98894.63;5091761;28;20085;-74
2022/04/08 07:57:21;;;;;;;13.10;2.58;;;;;;;6.90;96.55;98896.69;5091877;28;20051;-74
2022/04/08 07:59:47;;;;;;;4.93;2.13;;;;;;;6.87;97.25;98892.59;5092249;28;20050;-74
2022/04/08 08:02:14;;;;;;;4.55;1.63;;;;;;;6.82;96.36;98884.38;5091518;28;20032;-73
2022/04/08 08:04:40;;;;;;;8.20;1.98;;;;;;;6.85;97.63;98878.75;5091323;28;20554;-74
2022/04/08 08:07:06;;;;;;;4.45;2.00;;;;;;;6.87;98.27;98878.56;5091398;28;20032;-72
2022/04/08 08:09:33;;;;;;;7.50;2.03;;;;;;;6.91;99.47;98883.31;5091049;28;20036;-74
2022/04/08 08:12:00;;;;;;;7.10;2.43;;;;;;;6.94;98.48;98882.09;5091051;28;20561;-74
2022/04/08 08:14:25;;;;;;;6.85;1.83;;;;;;;6.92;98.65;98886.78;5091540;28;20039;-74
2022/04/08 08:16:51;;;;;;;6.97;2.83;;;;;;;6.94;98.47;98880.28;5091319;28;20032;-75
2022/04/08 08:19:17;;;;;;;8.30;2.78;;;;;;;7.01;98.96;98875.06;5091307;28;20032;-74
2022/04/08 08:21:42;;;;;;;5.40;2.38;;;;;;;7.07;99.74;98883.09;5090456;28;20488;-74
2022/04/08 08:24:08;;;;;;;8.65;2.10;;;;;;;7.05;98.64;98879.84;5091509;28;20097;-74
2022/04/08 08:26:34;;;;;;;6.10;1.80;;;;;;;6.98;99.09;98878.09;5091689;28;20032;-74
2022/04/08 08:29:00;;;;;;;6.40;2.22;;;;;;;6.97;98.23;98881.72;5090249;28;20031;-74
2022/04/08 08:31:26;;;;;;;8.48;1.70;;;;;;;7.05;98.95;98874.53;5091355;28;20055;-75
2022/04/08 08:33:51;;;;;;;10.05;2.42;;;;;;;6.99;99.55;98874.44;5091377;28;20036;-74
2022/04/08 08:36:17;;;;;;;7.55;2.47;;;;;;;6.96;97.63;98864.22;5091455;28;20044;-74
2022/04/08 08:38:43;;;;;;;4.60;2.40;;;;;;;6.96;99.33;98862.38;5091944;28;20310;-75
2022/04/08 08:41:10;;;;;;;5.75;2.38;;;;;;;6.97;100.00;98860.56;5092412;28;20025;-75
2022/04/08 08:43:36;;;;;;;6.18;2.25;;;;;;;7.00;100.00;98857.56;5091240;28;20039;-75
2022/04/08 08:46:04;;;;;;;4.85;2.20;;;;;;;6.96;99.96;98856.25;5091382;28;20028;-75
2022/04/08 08:48:33;;;;;;;9.98;1.85;;;;;;;6.99;99.58;98834.72;5091192;28;20504;-74
2022/04/08 08:51:05;;;;;;;4.30;1.73;;;;;;;7.04;97.80;98841.13;5091383;28;20044;-75
2022/04/08 08:53:33;;;;;;;4.40;1.73;;;;;;;7.00;99.01;98845.13;5107006;28;20083;-75
2022/04/08 08:56:00;;;;;;;9.43;3.22;;;;;;;7.03;99.20;98831.50;5091624;28;20097;-75
2022/04/08 08:58:27;;;;;;;5.95;1.88;;;;;;;7.06;98.92;98822.41;5090848;28;20036;-75
2022/04/08 09:00:53;;;;;;;6.45;1.98;;;;;;;7.16;97.19;98824.75;5091635;28;20035;-75
2022/04/08 09:03:19;;;;;;;6.20;1.90;;;;;;;7.21;99.89;98825.00;5091134;28;20405;-74
2022/04/08 09:05:47;;;;;;;5.22;1.98;;;;;;;7.22;98.54;98824.81;5073813;28;20046;-74
2022/04/08 09:08:13;;;;;;;5.53;1.90;;;;;;;7.15;96.39;98818.63;5093195;28;20050;-74
2022/04/08 09:10:43;;;;;;;5.07;1.50;;;;;;;7.16;96.22;98816.78;5094613;28;20028;-73
2022/04/08 09:13:09;;;;;;;4.80;1.48;;;;;;;7.18;96.88;98812.97;5093877;28;20488;-74
2022/04/08 09:15:39;;;;;;;3.08;1.35;;;;;;;7.16;97.60;98814.97;5094876;28;20039;-74
2022/04/08 09:18:14;;;;;;;4.30;1.75;;;;;;;7.19;99.18;98805.84;5093649;28;20040;-73
2022/04/08 09:20:45;;;;;;;4.57;1.85;;;;;;;7.22;97.60;98790.38;5095978;28;20060;-74
2022/04/08 09:23:12;;;;;;;3.92;1.65;;;;;;;7.23;97.13;98784.06;5097258;28;20563;-74
2022/04/08 09:25:39;;;;;;;4.50;1.52;;;;;;;7.18;97.69;98789.13;5094779;28;20508;-73
2022/04/08 09:28:10;;;;;;;5.45;1.80;;;;;;;7.17;96.56;98781.34;5094665;28;20606;-73
2022/04/08 09:30:36;;;;;;;4.57;1.40;;;;;;;7.17;96.15;98782.22;5094541;28;20097;-73
2022/04/08 09:33:24;;;;;;;3.65;1.38;;;;;;;7.19;95.07;98769.59;5076266;28;20028;-73
2022/04/08 09:35:53;;;;;;;5.47;1.50;;;;;;;7.07;96.20;98769.25;5094613;28;20544;-72
2022/04/08 09:38:21;;;;;;;4.07;2.03;;;;;;;7.12;98.33;98758.09;5094420;28;20036;-72
2022/04/08 09:40:49;;;;;;;3.17;1.25;;;;;;;7.10;97.78;98749.50;5094202;28;20039;-73
2022/04/08 09:43:16;;;;;;;2.28;1.30;;;;;;;7.20;99.94;98743.91;5094140;28;20107;-72
2022/04/08 09:45:43;;;;;;;3.55;1.33;;;;;;;7.01;98.32;98734.75;5094289;28;20444;-73
2022/04/08 09:48:09;;;;;;;3.33;1.15;;;;;;;7.13;95.97;98729.78;5093064;28;20044;-73
2022/04/08 09:50:37;;;;;;;2.55;1.25;;;;;;;7.16;99.86;98724.09;5093216;28;20118;-73
2022/04/08 09:53:06;;;;;;;2.65;1.17;;;;;;;7.19;96.20;98721.09;5093991;28;20055;-73
2022/04/08 09:55:34;;;;;;;3.20;1.27;;;;;;;7.20;96.35;98714.78;5094037;28;20036;-73
2022/04/08 09:58:05;;;;;;;5.38;1.40;;;;;;;7.08;97.04;98709.16;5094210;28;20115;-73
2022/04/08 10:00:32;;;;;;;2.58;1.20;;;;;;;7.19;98.23;98690.13;5092927;28;20035;-73
2022/04/08 10:03:01;;;;;;;8.70;3.35;;;;;;;7.19;98.30;98695.44;5092514;28;20104;-72
2022/04/08 10:05:27;;;;;;;3.47;1.30;;;;;;;7.24;96.35;98687.75;5093985;28;20515;-73
2022/04/08 10:07:55;;;;;;;3.40;1.48;;;;;;;7.26;98.69;98679.59;5094704;28;20064;-73
2022/04/08 10:10:31;;;;;;;3.28;1.40;;;;;;;7.28;99.61;98673.09;5093760;28;20045;-73
2022/04/08 10:13:21;;;;;;;4.25;1.30;;;;;;;7.26;100.00;98669.81;5094144;28;20032;-74
2022/04/08 10:15:49;;;;;;;3.42;1.17;;;;;;;7.29;97.99;98663.31;5094672;28;20123;-73
2022/04/08 10:18:15;;;;;;;1.98;1.15;;;;;;;7.22;100.00;98671.19;5094399;28;20042;-73
2022/04/08 10:20:41;;;;;;;2.83;1.20;;;;;;;7.23;98.65;98659.59;5094293;28;20039;-73
2022/04/08 10:23:09;;;;;;;3.00;1.60;;;;;;;7.21;100.00;98664.28;5075409;28;20115;-73
2022/04/08 10:25:42;;;;;;;2.38;1.50;;;;;;;7.03;99.79;98658.59;5093558;28;20130;-73
2022/04/08 10:28:10;;;;;;;3.13;1.40;;;;;;;7.17;100.00;98660.38;5093572;28;20043;-73
2022/04/08 10:30:45;;;;;;;4.45;1.40;;;;;;;7.19;100.00;98652.25;5093431;28;20036;-73
2022/04/08 10:33:13;;;;;;;2.83;1.23;;;;;;;7.12;93.02;98657.47;5093556;28;20040;-73
2022/04/08 10:35:52;;;;;;;2.15;1.00;;;;;;;6.84;97.57;98644.16;5082275;22;20045;-70
2022/04/08 10:38:18;;;;;;;3.72;1.30;;;;;;;6.81;97.08;98644.53;5053112;28;20068;-71
2022/04/08 10:40:52;;;;;;;3.28;1.27;;;;;;;6.87;99.41;98635.03;5052989;28;20107;-73
2022/04/08 10:43:18;;;;;;;4.25;1.50;;;;;;;6.96;99.94;98629.41;5052792;28;20040;-73
2022/04/08 10:45:58;;;;;;;2.72;1.00;;;;;;;6.96;98.76;98618.00;5052872;28;20037;-73
2022/04/08 10:48:31;;;;;;;2.58;1.30;;;;;;;7.06;97.58;98610.56;5053043;28;20033;-73
2022/04/08 10:51:10;;;;;;;5.00;1.40;;;;;;;7.09;97.89;98610.19;5055138;28;20092;-73
2022/04/08 10:53:42;;;;;;;2.22;1.15;;;;;;;7.11;97.83;98600.25;5052644;28;20056;-73
2022/04/08 10:56:14;;;;;;;3.97;1.27;;;;;;;7.01;100.00;98595.25;5052813;28;20041;-72
2022/04/08 10:58:49;;;;;;;2.45;1.25;;;;;;;7.14;100.00;98585.78;5052728;28;20036;-72
2022/04/08 11:01:21;;;;;;;2.40;1.13;;;;;;;7.15;100.00;98579.47;5052687;28;20440;-72
2022/04/08 11:03:54;;;;;;;2.95;1.42;;;;;;;7.19;100.00;98576.25;5034852;28;20422;-72
2022/04/08 11:06:20;;;;;;;2.90;1.20;;;;;;;7.27;100.00;98573.47;5052553;28;20032;-72
2022/04/08 11:08:45;;;;;;;2.35;1.05;;;;;;;7.29;99.32;98574.06;5034539;28;20028;-72
2022/04/08 11:11:11;;;;;;;2.70;1.45;;;;;;;7.25;97.09;98564.91;5052420;28;20029;-72
2022/04/08 11:13:43;;;;;;;4.80;1.30;;;;;;;7.24;99.57;98555.31;5052123;28;20033;-72
2022/04/08 11:16:09;;;;;;;1.85;1.20;;;;;;;7.19;100.00;98549.78;5052297;28;20398;-73
2022/04/08 11:18:35;;;;;;;2.45;1.20;;;;;;;7.28;100.00;98542.50;5052384;28;20053;-71
2022/04/08 11:21:01;;;;;;;3.58;1.70;;;;;;;7.13;100.00;98534.66;5052461;28;20086;-73
2022/04/08 11:23:34;;;;;;;2.72;1.10;;;;;;;7.19;100.00;98528.59;5051848;28;20045;-72
2022/04/08 11:26:10;;;;;;;1.40;1.10;;;;;;;7.14;100.00;98536.28;5052231;28;20524;-72
2022/04/08 11:28:35;;;;;;;2.60;1.15;;;;;;;7.26;100.00;98518.88;5052690;28;20111;-72
2022/04/08 11:31:01;;;;;;;3.40;1.70;;;;;;;7.18;100.00;98513.72;5051417;28;20037;-72
2022/04/08 11:33:31;;;;;;;3.33;1.27;;;;;;;7.19;100.00;98520.66;5051627;28;20033;-73
2022/04/08 11:36:00;;;;;;;2.72;1.20;;;;;;;7.18;98.42;98502.31;5051955;28;20035;-73
2022/04/08 11:38:28;;;;;;;1.50;1.30;;;;;;;7.19;98.80;98502.13;5051869;28;20037;-72
2022/04/08 11:40:54;;;;;;;1.77;1.00;;;;;;;7.20;96.42;98464.03;5034789;28;20025;-73
2022/04/08 11:43:21;;;;;;;1.25;0.90;;;;;;;7.15;98.95;98465.63;5033961;28;20494;-73
2022/04/08 11:45:52;;;;;;;2.47;1.00;;;;;;;6.88;100.00;98499.03;5051725;28;20041;-72
2022/04/08 11:48:20;;;;;;;2.05;1.00;;;;;;;6.99;99.64;98449.03;5051899;28;20061;-72
2022/04/08 11:50:47;;;;;;;2.15;1.20;;;;;;;6.95;99.08;98384.22;5051625;28;20108;-72
2022/04/08 11:53:15;;;;;;;2.20;1.00;;;;;;;6.84;100.00;98471.28;5051528;28;20037;-73
2022/04/08 11:55:59;;;;;;;2.70;1.20;;;;;;;6.87;100.00;98500.84;5051707;28;20112;-73
2022/04/08 11:58:27;;;;;;;1.70;1.00;;;;;;;6.78;100.00;98471.06;5051636;28;20549;-73
2022/04/08 12:00:53;;;;;;;;;;;;;;;6.64;100.00;98476.44;5034264;28;20033;-72
2022/04/08 12:03:21;;;;;;;4.32;1.02;;;;;;;6.72;100.00;98471.84;5051455;28;19912;-72
2022/04/08 12:05:51;;;;;;;2.03;1.23;;;;;;;6.67;100.00;98474.25;5051502;28;20033;-75
2022/04/08 12:08:18;;;;;;;2.25;1.05;;;;;;;6.69;100.00;98481.97;5051437;28;20040;-74
2022/04/08 12:10:45;;;;;;;1.48;0.95;;;;;;;6.78;100.00;98449.06;5051528;28;20433;-74
2022/04/08 12:13:15;;;;;;;3.15;0.90;;;;;;;6.73;98.79;98452.31;5033376;28;20094;-73
2022/04/08 12:15:47;;;;;;;4.43;2.40;;;;;;;6.78;97.67;98434.03;5033672;28;20114;-73
2022/04/08 12:18:21;;;;;;;1.88;1.20;;;;;;;6.74;98.32;98427.47;5033517;28;20044;-73
2022/04/08 12:20:52;;;;;;;4.13;2.72;;;;;;;6.78;98.47;98422.59;5051416;28;20032;-74
2022/04/08 12:23:21;;;;;;;2.95;0.80;;;;;;;6.71;98.03;98427.03;5051184;28;20086;-73
2022/04/08 12:25:50;;;;;;;2.25;0.90;;;;;;;6.65;97.99;98420.69;5033417;28;20029;-73
2022/04/08 12:28:16;;;;;;;1.55;1.10;;;;;;;6.68;99.98;98428.25;5034063;28;20406;-73
2022/04/08 12:30:42;;;;;;;3.25;1.05;;;;;;;6.69;98.91;98398.13;5051207;28;20040;-74
2022/04/08 12:33:07;;;;;;;1.83;1.45;;;;;;;6.71;98.72;98384.69;5033272;28;20043;-74
2022/04/08 12:35:33;;;;;;;1.13;0.90;;;;;;;6.58;100.00;98385.41;5051084;28;20136;-71
2022/04/08 12:37:59;;;;;;;1.27;0.80;;;;;;;6.52;100.00;98380.91;5033411;28;20079;-73
2022/04/08 12:40:25;;;;;;;0.80;0.80;;;;;;;6.61;98.53;98378.94;5051289;28;20383;-72
2022/04/08 12:42:51;;;;;;;2.45;1.15;;;;;;;6.65;98.54;98356.34;5034495;28;20124;-72
2022/04/08 12:45:17;;;;;;;1.85;1.33;;;;;;;6.68;99.32;98340.94;5055151;28;20040;-74
2022/04/08 12:47:42;;;;;;;2.72;2.00;;;;;;;6.49;96.98;98326.56;5055230;28;20025;-74
2022/04/08 12:50:10;;;;;;;1.23;0.70;;;;;;;6.46;95.98;98332.25;5055291;28;20076;-74
2022/04/08 12:52:36;;;;;;;;;;;;;;;6.52;96.58;98331.47;5037722;28;20045;-72
2022/04/08 12:55:01;;;;;;;1.95;1.10;;;;;;;6.53;98.91;98324.34;5055083;28;20396;-72
2022/04/08 12:57:31;;;;;;;0.88;0.80;;;;;;;6.64;97.39;98326.44;5037327;28;20095;-73
2022/04/08 12:59:56;;;;;;;3.53;1.30;;;;;;;6.56;99.30;98339.81;5055034;28;20045;-72
2022/04/08 13:02:22;;;;;;;1.48;0.80;;;;;;;6.59;99.63;98305.06;5036690;28;20021;-73
2022/04/08 13:04:47;;;;;;;1.10;0.70;;;;;;;6.65;97.89;98296.34;5054863;28;20094;-72
2022/04/08 13:07:13;;;;;;;2.20;0.98;;;;;;;6.46;98.16;98287.28;5036911;28;20397;-73
2022/04/08 13:09:39;;;;;;;1.50;1.00;;;;;;;6.50;96.97;98271.81;5054844;28;20060;-73
2022/04/08 13:12:04;;;;;;;2.58;1.08;;;;;;;6.36;98.43;98262.19;5036537;28;20385;-74
2022/04/08 13:14:30;;;;;;;2.25;1.13;;;;;;;6.49;98.23;98264.91;5054769;28;20040;-76
2022/04/08 13:16:56;;;;;;;1.50;1.08;;;;;;;6.47;97.82;98240.50;5036818;28;20037;-75
2022/04/08 13:19:21;;;;;;;4.38;1.42;;;;;;;6.39;99.37;98220.31;5054795;28;20052;-75
2022/04/08 13:21:47;;;;;;;2.10;1.13;;;;;;;6.38;99.25;98220.47;5054414;28;20062;-75
2022/04/08 13:24:13;;;;;;;2.25;1.10;;;;;;;6.41;99.02;98218.28;5036828;28;20032;-74
2022/04/08 13:26:39;;;;;;;2.58;1.10;;;;;;;6.43;99.71;98210.94;5036658;28;20386;-74
2022/04/08 13:29:04;;;;;;;2.83;1.10;;;;;;;6.41;100.00;98220.09;5054475;28;20079;-76
2022/04/08 13:31:30;;;;;;;1.75;1.20;;;;;;;6.23;100.00;98224.06;5054191;28;20071;-73
2022/04/08 13:33:56;;;;;;;2.70;1.33;;;;;;;6.12;100.00;98218.50;5036376;28;20190;-73
2022/04/08 13:36:22;;;;;;;2.47;1.60;;;;;;;6.04;100.00;98223.94;5054185;28;20035;-73
2022/04/08 13:38:48;;;;;;;1.75;1.17;;;;;;;6.02;100.00;98224.13;5054371;28;20091;-75
2022/04/08 13:41:13;;;;;;;3.65;1.63;;;;;;;5.97;100.00;98235.28;5036436;28;20041;-74
2022/04/08 13:43:39;;;;;;;2.53;1.60;;;;;;;5.93;100.00;98225.28;5054033;28;20482;-74
2022/04/08 13:46:05;;;;;;;1.92;1.45;;;;;;;6.12;100.00;98211.38;5054087;28;20041;-76
2022/04/08 13:48:30;;;;;;;4.20;2.03;;;;;;;6.19;100.00;98212.25;5036591;28;20436;-74
2022/04/08 13:50:57;;;;;;;4.18;2.40;;;;;;;6.11;100.00;98233.53;5054109;28;20061;-74
2022/04/08 13:53:22;;;;;;;5.15;2.70;;;;;;;6.17;100.00;98229.31;5053277;28;20115;-74
2022/04/08 13:55:49;;;;;;;3.25;1.83;;;;;;;6.07;100.00;98205.06;5053966;28;20112;-75
2022/04/08 13:58:14;;;;;;;3.08;1.77;;;;;;;5.87;100.00;98174.00;5054089;28;20051;-76
2022/04/08 14:00:40;;;;;;;3.05;1.83;;;;;;;5.93;100.00;98198.84;5019840;28;20037;-73
2022/04/08 14:03:06;;;;;;;7.93;2.13;;;;;;;6.08;100.00;98215.44;5053485;28;20375;-73
2022/04/08 14:05:32;;;;;;;5.47;2.30;;;;;;;6.12;100.00;98210.56;5053704;28;20111;-74
2022/04/08 14:07:58;;;;;;;4.05;1.95;;;;;;;6.10;100.00;98194.09;5053974;28;20025;-75
2022/04/08 14:10:24;;;;;;;4.20;2.10;;;;;;;6.03;100.00;98186.13;5055593;28;20273;-75
2022/04/08 14:12:50;;;;;;;3.42;2.00;;;;;;;6.00;100.00;98197.09;5053900;28;20517;-74
2022/04/08 14:15:15;;;;;;;2.95;1.98;;;;;;;5.83;100.00;98195.72;5053804;28;20048;-72
2022/04/08 14:17:41;;;;;;;4.45;2.22;;;;;;;5.96;100.00;98193.19;5036032;28;20087;-73
2022/04/08 14:20:07;;;;;;;3.92;1.90;;;;;;;5.90;100.00;98197.41;5035891;28;20048;-74
2022/04/08 14:22:33;;;;;;;5.00;2.63;;;;;;;5.81;100.00;98179.25;5035443;28;20029;-72
2022/04/08 14:24:59;;;;;;;6.28;3.13;;;;;;;5.75;100.00;98177.38;5035395;28;20051;-74
2022/04/08 14:27:24;;;;;;;4.25;2.70;;;;;;;5.81;100.00;98188.00;5053454;28;20496;-72
2022/04/08 14:29:50;;;;;;;7.72;3.80;;;;;;;5.87;100.00;98183.78;5035546;28;20049;-73
2022/04/08 14:32:16;;;;;;;4.88;2.60;;;;;;;5.78;100.00;98190.19;5052877;28;20037;-73
2022/04/08 14:34:41;;;;;;;4.90;3.38;;;;;;;5.89;100.00;98150.84;5035306;28;20607;-73
2022/04/08 14:37:07;;;;;;;4.65;2.58;;;;;;;5.89;100.00;98147.38;5035365;28;20041;-73
2022/04/08 14:39:33;;;;;;;6.55;4.10;;;;;;;5.84;100.00;98161.16;5053180;28;20041;-73
2022/04/08 14:41:58;;;;;;;5.30;2.67;;;;;;;5.86;100.00;98121.34;5052628;28;20041;-73
2022/04/08 14:44:24;;;;;;;4.35;3.53;;;;;;;5.90;100.00;98170.16;5035047;28;20090;-73
2022/04/08 14:46:50;;;;;;;4.18;2.80;;;;;;;5.91;100.00;98174.44;5035193;28;20394;-73
2022/04/08 14:49:16;;;;;;;4.63;3.30;;;;;;;5.89;100.00;98163.25;5052832;28;20112;-73
2022/04/08 14:51:42;;;;;;;4.15;3.22;;;;;;;5.77;100.00;98176.16;5034731;28;20064;-74
2022/04/08 14:54:07;;;;;;;3.63;2.65;;;;;;;5.85;100.00;98228.84;5052743;28;20108;-73
2022/04/08 14:56:33;;;;;;;4.53;2.97;;;;;;;5.83;100.00;98225.59;5052649;28;20043;-74
2022/04/08 14:59:00;;;;;;;4.05;2.15;;;;;;;5.69;100.00;98208.81;5018575;28;20347;-74
2022/04/08 15:01:25;;;;;;;4.60;2.53;;;;;;;5.66;100.00;98214.47;5052559;28;20037;-73
2022/04/08 15:03:52;;;;;;;4.00;2.13;;;;;;;5.61;100.00;98214.25;5052486;28;20043;-73
2022/04/08 15:06:17;;;;;;;2.92;1.65;;;;;;;5.41;100.00;98198.25;5051579;28;20506;-73
2022/04/08 15:08:45;;;;;;;3.20;1.63;;;;;;;5.61;100.00;98179.91;5052675;28;20037;-74
2022/04/08 15:11:11;;;;;;;4.82;1.90;;;;;;;5.60;100.00;98220.53;5052711;28;20037;-76
2022/04/08 15:13:37;;;;;;;4.15;1.73;;;;;;;5.58;100.00;98211.97;5052121;28;20025;-73
2022/04/08 15:16:04;;;;;;;2.95;1.75;;;;;;;5.52;100.00;98220.66;5052376;28;20090;-74
2022/04/08 15:18:31;;;;;;;2.50;1.70;;;;;;;5.52;100.00;98255.00;5052428;28;20116;-73
2022/04/08 15:20:57;;;;;;;1.73;1.40;;;;;;;5.48;100.00;98219.44;5052415;28;20036;-73
2022/04/08 15:23:23;;;;;;;2.15;1.20;;;;;;;5.50;100.00;98251.75;5052187;28;20294;-73
2022/04/08 15:25:50;;;;;;;3.22;1.75;;;;;;;5.43;100.00;98217.34;5052242;28;20029;-72
2022/04/08 15:28:16;;;;;;;2.50;1.73;;;;;;;5.25;100.00;98229.34;5052110;28;20393;-73
2022/04/08 15:30:42;;;;;;;2.15;1.88;;;;;;;5.37;100.00;98249.78;5050564;28;20036;-73
2022/04/08 15:33:07;;;;;;;2.70;1.90;;;;;;;5.35;100.00;98219.31;5040231;28;20032;-72
2022/04/08 15:35:37;;;;;;;4.13;2.03;;;;;;;5.25;100.00;98234.63;5063415;28;20466;-73
2022/04/08 15:38:04;;;;;;;2.67;2.40;;;;;;;5.33;100.00;98216.00;5072023;28;20045;-73
2022/04/08 15:40:30;;;;;;;3.58;2.70;;;;;;;5.40;100.00;98259.97;5052118;28;20025;-74
2022/04/08 15:42:59;;;;;;;2.33;1.45;;;;;;;5.30;100.00;98258.66;5057011;28;20040;-73
2022/04/08 15:45:25;;;;;;;2.90;1.85;;;;;;;5.28;100.00;98279.13;5031415;28;20056;-73
2022/04/08 15:47:51;;;;;;;2.85;1.65;;;;;;;5.15;100.00;98288.56;5063408;28;20481;-73
2022/04/08 15:50:16;;;;;;;4.07;2.80;;;;;;;5.23;100.00;98260.41;5071705;28;20048;-74
2022/04/08 15:52:42;;;;;;;1.98;1.75;;;;;;;5.06;100.00;98267.72;5052796;28;20028;-73
2022/04/08 15:55:09;;;;;;;3.78;1.85;;;;;;;5.12;100.00;98306.56;5059215;28;20504;-73
2022/04/08 15:57:36;;;;;;;5.32;1.85;;;;;;;4.96;100.00;98296.25;5041240;28;20497;-72
2022/04/08 16:00:04;;;;;;;4.78;3.10;;;;;;;5.04;100.00;98328.63;5033619;28;20086;-75